Villa Grove, Illinois
Current Conditions -  °F | °C
As of 5:53 PM on Friday 24 Oct 2014 (Local Time) from KCMI Reporting Station
Clear Clear  
Wind Chill: 60°   Ceiling: Unl
Heat Index: 60°   Visibility: 9mi
Dew Point: 54°   Wind: 8mph
Humidity: 80%   Direction: 220°SW
Pressure: 30.01"   Gusts: NA
Location:  39.86°N, 88.16°W
Report Text: KCMI 242253Z 22007KT 9SM CLR 16/12 A3001 RMK AO2 SLP164 T01560122 $
Loading
Personal Weather Stations






























Interactive Weather Map
Tropical Storm Tracking
New forecast layout! Learn more

10-Day Weather Forecast

Advertisements
Track Severe Weather on mobile